sensor_id;sensor_type;location;lat;lon;timestamp;P1;durP1;ratioP1;P2;durP2;ratioP2
68765;SDS011;55756;45.582;11.484;2022-08-01T00:00:33;5.47;;;1.90;;
68765;SDS011;55756;45.582;11.484;2022-08-01T00:02:59;5.90;;;1.70;;
68765;SDS011;55756;45.582;11.484;2022-08-01T00:05:25;6.88;;;1.90;;
68765;SDS011;55756;45.582;11.484;2022-08-01T00:07:51;5.72;;;1.90;;
68765;SDS011;55756;45.582;11.484;2022-08-01T00:10:16;3.97;;;1.70;;
68765;SDS011;55756;45.582;11.484;2022-08-01T00:12:43;4.45;;;1.88;;
68765;SDS011;55756;45.582;11.484;2022-08-01T00:15:10;7.03;;;1.88;;
68765;SDS011;55756;45.582;11.484;2022-08-01T00:17:38;4.68;;;1.90;;
68765;SDS011;55756;45.582;11.484;2022-08-01T00:20:05;5.05;;;1.73;;
68765;SDS011;55756;45.582;11.484;2022-08-01T00:22:33;5.30;;;1.80;;
68765;SDS011;55756;45.582;11.484;2022-08-01T00:25:00;8.20;;;1.80;;
68765;SDS011;55756;45.582;11.484;2022-08-01T00:27:26;6.32;;;1.90;;
68765;SDS011;55756;45.582;11.484;2022-08-01T00:29:52;5.32;;;2.00;;
68765;SDS011;55756;45.582;11.484;2022-08-01T00:32:18;4.50;;;2.00;;
68765;SDS011;55756;45.582;11.484;2022-08-01T00:34:44;5.60;;;1.80;;
68765;SDS011;55756;45.582;11.484;2022-08-01T00:37:10;5.45;;;1.90;;
68765;SDS011;55756;45.582;11.484;2022-08-01T00:39:35;4.53;;;1.77;;
68765;SDS011;55756;45.582;11.484;2022-08-01T00:42:08;5.07;;;1.77;;
68765;SDS011;55756;45.582;11.484;2022-08-01T00:44:35;5.53;;;1.77;;
68765;SDS011;55756;45.582;11.484;2022-08-01T00:47:01;4.15;;;1.80;;
68765;SDS011;55756;45.582;11.484;2022-08-01T00:49:28;5.95;;;1.83;;
68765;SDS011;55756;45.582;11.484;2022-08-01T00:51:54;4.85;;;1.90;;
68765;SDS011;55756;45.582;11.484;2022-08-01T00:54:21;6.03;;;1.90;;
68765;SDS011;55756;45.582;11.484;2022-08-01T00:56:48;7.78;;;1.80;;
68765;SDS011;55756;45.582;11.484;2022-08-01T00:59:14;6.85;;;2.10;;
68765;SDS011;55756;45.582;11.484;2022-08-01T01:01:42;7.53;;;2.20;;
68765;SDS011;55756;45.582;11.484;2022-08-01T01:04:09;6.38;;;2.30;;
68765;SDS011;55756;45.582;11.484;2022-08-01T01:09:39;7.15;;;2.10;;
68765;SDS011;55756;45.582;11.484;2022-08-01T01:15:10;7.45;;;2.22;;
68765;SDS011;55756;45.582;11.484;2022-08-01T01:17:51;7.32;;;2.35;;
68765;SDS011;55756;45.582;11.484;2022-08-01T01:20:21;6.68;;;2.30;;
68765;SDS011;55756;45.582;11.484;2022-08-01T01:26:04;7.57;;;2.60;;
68765;SDS011;55756;45.582;11.484;2022-08-01T01:31:27;7.80;;;2.30;;
68765;SDS011;55756;45.582;11.484;2022-08-01T01:36:23;4.93;;;2.35;;
68765;SDS011;55756;45.582;11.484;2022-08-01T01:38:51;9.02;;;2.50;;
68765;SDS011;55756;45.582;11.484;2022-08-01T01:41:18;8.93;;;2.33;;
68765;SDS011;55756;45.582;11.484;2022-08-01T01:43:45;6.63;;;2.17;;
68765;SDS011;55756;45.582;11.484;2022-08-01T01:46:13;6.23;;;2.27;;
68765;SDS011;55756;45.582;11.484;2022-08-01T01:48:43;6.47;;;2.30;;
68765;SDS011;55756;45.582;11.484;2022-08-01T01:51:10;5.85;;;2.20;;
68765;SDS011;55756;45.582;11.484;2022-08-01T01:53:38;4.45;;;2.10;;
68765;SDS011;55756;45.582;11.484;2022-08-01T01:56:06;5.47;;;2.20;;
68765;SDS011;55756;45.582;11.484;2022-08-01T01:58:34;6.93;;;2.20;;
68765;SDS011;55756;45.582;11.484;2022-08-01T02:01:02;5.05;;;2.20;;
68765;SDS011;55756;45.582;11.484;2022-08-01T02:03:28;5.75;;;2.10;;
68765;SDS011;55756;45.582;11.484;2022-08-01T02:05:56;9.18;;;2.10;;
68765;SDS011;55756;45.582;11.484;2022-08-01T02:08:23;5.55;;;2.10;;
68765;SDS011;55756;45.582;11.484;2022-08-01T02:10:50;6.63;;;2.50;;
68765;SDS011;55756;45.582;11.484;2022-08-01T02:13:37;6.85;;;2.40;;
68765;SDS011;55756;45.582;11.484;2022-08-01T02:16:05;6.53;;;2.20;;
68765;SDS011;55756;45.582;11.484;2022-08-01T02:18:32;8.23;;;2.38;;
68765;SDS011;55756;45.582;11.484;2022-08-01T02:20:58;6.35;;;2.40;;
68765;SDS011;55756;45.582;11.484;2022-08-01T02:23:31;6.97;;;2.55;;
68765;SDS011;55756;45.582;11.484;2022-08-01T02:25:59;6.47;;;2.50;;
68765;SDS011;55756;45.582;11.484;2022-08-01T02:28:29;7.43;;;2.40;;
68765;SDS011;55756;45.582;11.484;2022-08-01T02:31:00;8.98;;;2.30;;
68765;SDS011;55756;45.582;11.484;2022-08-01T02:33:39;6.95;;;2.30;;
68765;SDS011;55756;45.582;11.484;2022-08-01T02:36:08;6.28;;;2.30;;
68765;SDS011;55756;45.582;11.484;2022-08-01T02:38:37;6.32;;;2.40;;
68765;SDS011;55756;45.582;11.484;2022-08-01T02:41:07;6.70;;;2.10;;
68765;SDS011;55756;45.582;11.484;2022-08-01T02:43:38;8.82;;;2.30;;
68765;SDS011;55756;45.582;11.484;2022-08-01T02:46:08;4.85;;;2.10;;
68765;SDS011;55756;45.582;11.484;2022-08-01T02:48:41;6.82;;;2.20;;
68765;SDS011;55756;45.582;11.484;2022-08-01T02:51:08;5.35;;;2.30;;
68765;SDS011;55756;45.582;11.484;2022-08-01T02:53:36;6.60;;;2.30;;
68765;SDS011;55756;45.582;11.484;2022-08-01T02:56:06;8.00;;;2.25;;
68765;SDS011;55756;45.582;11.484;2022-08-01T02:58:33;6.60;;;2.17;;
68765;SDS011;55756;45.582;11.484;2022-08-01T03:01:03;7.68;;;2.33;;
68765;SDS011;55756;45.582;11.484;2022-08-01T03:03:31;7.45;;;2.20;;
68765;SDS011;55756;45.582;11.484;2022-08-01T03:05:57;5.32;;;2.17;;
68765;SDS011;55756;45.582;11.484;2022-08-01T03:08:24;5.38;;;2.10;;
68765;SDS011;55756;45.582;11.484;2022-08-01T03:10:50;6.28;;;2.10;;
68765;SDS011;55756;45.582;11.484;2022-08-01T03:13:18;7.95;;;2.30;;
68765;SDS011;55756;45.582;11.484;2022-08-01T03:18:13;6.43;;;2.30;;
68765;SDS011;55756;45.582;11.484;2022-08-01T03:20:40;7.50;;;2.20;;
68765;SDS011;55756;45.582;11.484;2022-08-01T03:23:08;10.73;;;2.40;;
68765;SDS011;55756;45.582;11.484;2022-08-01T03:25:38;8.23;;;2.30;;
68765;SDS011;55756;45.582;11.484;2022-08-01T03:28:06;6.25;;;2.20;;
68765;SDS011;55756;45.582;11.484;2022-08-01T03:30:33;5.97;;;2.13;;
68765;SDS011;55756;45.582;11.484;2022-08-01T03:35:35;7.70;;;2.40;;
68765;SDS011;55756;45.582;11.484;2022-08-01T03:38:04;7.18;;;2.63;;
68765;SDS011;55756;45.582;11.484;2022-08-01T03:40:37;7.97;;;2.40;;
68765;SDS011;55756;45.582;11.484;2022-08-01T03:43:07;5.78;;;2.35;;
68765;SDS011;55756;45.582;11.484;2022-08-01T03:45:38;9.45;;;2.60;;
68765;SDS011;55756;45.582;11.484;2022-08-01T03:48:10;5.32;;;2.20;;
68765;SDS011;55756;45.582;11.484;2022-08-01T03:50:41;6.43;;;2.40;;
68765;SDS011;55756;45.582;11.484;2022-08-01T03:53:09;6.93;;;2.40;;
68765;SDS011;55756;45.582;11.484;2022-08-01T03:55:37;9.88;;;2.45;;
68765;SDS011;55756;45.582;11.484;2022-08-01T03:58:05;8.23;;;2.67;;
68765;SDS011;55756;45.582;11.484;2022-08-01T04:00:32;5.50;;;2.30;;
68765;SDS011;55756;45.582;11.484;2022-08-01T04:02:59;8.32;;;2.40;;
68765;SDS011;55756;45.582;11.484;2022-08-01T04:05:25;6.03;;;2.40;;
68765;SDS011;55756;45.582;11.484;2022-08-01T04:07:51;6.90;;;2.13;;
68765;SDS011;55756;45.582;11.484;2022-08-01T04:10:21;6.22;;;2.30;;
68765;SDS011;55756;45.582;11.484;2022-08-01T04:12:48;5.05;;;2.15;;
68765;SDS011;55756;45.582;11.484;2022-08-01T04:15:14;6.18;;;2.17;;
68765;SDS011;55756;45.582;11.484;2022-08-01T04:17:40;6.88;;;2.35;;
68765;SDS011;55756;45.582;11.484;2022-08-01T04:20:06;9.13;;;2.10;;
68765;SDS011;55756;45.582;11.484;2022-08-01T04:22:32;8.73;;;2.25;;
68765;SDS011;55756;45.582;11.484;2022-08-01T04:24:59;7.85;;;2.33;;
68765;SDS011;55756;45.582;11.484;2022-08-01T04:27:32;6.60;;;2.30;;
68765;SDS011;55756;45.582;11.484;2022-08-01T04:30:02;6.10;;;2.30;;
68765;SDS011;55756;45.582;11.484;2022-08-01T04:32:31;8.55;;;2.30;;
68765;SDS011;55756;45.582;11.484;2022-08-01T04:35:00;10.60;;;2.42;;
68765;SDS011;55756;45.582;11.484;2022-08-01T04:37:30;8.52;;;2.38;;
68765;SDS011;55756;45.582;11.484;2022-08-01T04:39:56;7.90;;;2.30;;
68765;SDS011;55756;45.582;11.484;2022-08-01T04:42:23;9.85;;;2.55;;
68765;SDS011;55756;45.582;11.484;2022-08-01T04:44:49;7.93;;;2.80;;
68765;SDS011;55756;45.582;11.484;2022-08-01T04:47:15;9.48;;;2.70;;
68765;SDS011;55756;45.582;11.484;2022-08-01T04:49:41;6.35;;;2.50;;
68765;SDS011;55756;45.582;11.484;2022-08-01T04:52:07;8.13;;;2.60;;
68765;SDS011;55756;45.582;11.484;2022-08-01T04:54:34;8.43;;;2.35;;
68765;SDS011;55756;45.582;11.484;2022-08-01T04:57:06;9.05;;;2.60;;
68765;SDS011;55756;45.582;11.484;2022-08-01T04:59:32;7.55;;;2.60;;
68765;SDS011;55756;45.582;11.484;2022-08-01T05:02:05;9.93;;;2.80;;
68765;SDS011;55756;45.582;11.484;2022-08-01T05:04:36;8.25;;;2.60;;
68765;SDS011;55756;45.582;11.484;2022-08-01T05:07:03;12.32;;;2.42;;
68765;SDS011;55756;45.582;11.484;2022-08-01T05:09:30;6.20;;;2.47;;
68765;SDS011;55756;45.582;11.484;2022-08-01T05:11:56;9.85;;;2.75;;
68765;SDS011;55756;45.582;11.484;2022-08-01T05:14:26;7.78;;;2.60;;
68765;SDS011;55756;45.582;11.484;2022-08-01T05:16:53;6.00;;;2.30;;
68765;SDS011;55756;45.582;11.484;2022-08-01T05:19:19;5.93;;;2.30;;
68765;SDS011;55756;45.582;11.484;2022-08-01T05:21:46;6.32;;;2.50;;
68765;SDS011;55756;45.582;11.484;2022-08-01T05:24:12;7.60;;;2.30;;
68765;SDS011;55756;45.582;11.484;2022-08-01T05:26:38;6.25;;;2.50;;
68765;SDS011;55756;45.582;11.484;2022-08-01T05:29:05;7.80;;;2.60;;
68765;SDS011;55756;45.582;11.484;2022-08-01T05:31:30;6.70;;;2.50;;
68765;SDS011;55756;45.582;11.484;2022-08-01T05:34:02;6.22;;;2.30;;
68765;SDS011;55756;45.582;11.484;2022-08-01T05:36:28;5.82;;;2.60;;
68765;SDS011;55756;45.582;11.484;2022-08-01T05:38:54;8.45;;;3.00;;
68765;SDS011;55756;45.582;11.484;2022-08-01T05:41:20;7.40;;;2.70;;
68765;SDS011;55756;45.582;11.484;2022-08-01T05:43:46;6.88;;;2.72;;
68765;SDS011;55756;45.582;11.484;2022-08-01T05:46:12;7.13;;;2.67;;
68765;SDS011;55756;45.582;11.484;2022-08-01T05:48:38;6.55;;;2.90;;
68765;SDS011;55756;45.582;11.484;2022-08-01T05:51:04;9.23;;;2.70;;
68765;SDS011;55756;45.582;11.484;2022-08-01T05:53:29;6.18;;;2.60;;
68765;SDS011;55756;45.582;11.484;2022-08-01T05:55:55;8.60;;;2.50;;
68765;SDS011;55756;45.582;11.484;2022-08-01T05:58:21;12.25;;;2.80;;
68765;SDS011;55756;45.582;11.484;2022-08-01T06:00:47;10.30;;;2.67;;
68765;SDS011;55756;45.582;11.484;2022-08-01T06:03:13;10.23;;;2.92;;
68765;SDS011;55756;45.582;11.484;2022-08-01T06:05:39;9.95;;;3.08;;
68765;SDS011;55756;45.582;11.484;2022-08-01T06:08:05;13.05;;;2.80;;
68765;SDS011;55756;45.582;11.484;2022-08-01T06:10:31;9.15;;;2.72;;
68765;SDS011;55756;45.582;11.484;2022-08-01T06:12:57;7.32;;;2.50;;
68765;SDS011;55756;45.582;11.484;2022-08-01T06:15:24;13.40;;;4.15;;
68765;SDS011;55756;45.582;11.484;2022-08-01T06:17:50;14.00;;;3.38;;
68765;SDS011;55756;45.582;11.484;2022-08-01T06:20:16;20.50;;;3.13;;
68765;SDS011;55756;45.582;11.484;2022-08-01T06:22:42;15.85;;;3.10;;
68765;SDS011;55756;45.582;11.484;2022-08-01T06:25:08;15.52;;;2.85;;
68765;SDS011;55756;45.582;11.484;2022-08-01T06:27:34;13.73;;;2.85;;
68765;SDS011;55756;45.582;11.484;2022-08-01T06:30:00;14.77;;;3.10;;
68765;SDS011;55756;45.582;11.484;2022-08-01T06:32:26;14.32;;;2.50;;
68765;SDS011;55756;45.582;11.484;2022-08-01T06:34:52;9.10;;;2.13;;
68765;SDS011;55756;45.582;11.484;2022-08-01T06:37:19;10.85;;;2.22;;
68765;SDS011;55756;45.582;11.484;2022-08-01T06:39:45;7.75;;;2.10;;
68765;SDS011;55756;45.582;11.484;2022-08-01T06:42:11;8.27;;;2.95;;
68765;SDS011;55756;45.582;11.484;2022-08-01T06:44:39;11.13;;;3.00;;
68765;SDS011;55756;45.582;11.484;2022-08-01T06:47:05;8.85;;;2.80;;
68765;SDS011;55756;45.582;11.484;2022-08-01T06:49:31;10.10;;;2.92;;
68765;SDS011;55756;45.582;11.484;2022-08-01T06:51:57;8.50;;;2.75;;
68765;SDS011;55756;45.582;11.484;2022-08-01T06:54:23;8.50;;;2.97;;
68765;SDS011;55756;45.582;11.484;2022-08-01T06:56:49;7.57;;;2.90;;
68765;SDS011;55756;45.582;11.484;2022-08-01T06:59:15;6.32;;;3.08;;
68765;SDS011;55756;45.582;11.484;2022-08-01T07:01:40;6.10;;;2.60;;
68765;SDS011;55756;45.582;11.484;2022-08-01T07:04:06;6.35;;;2.70;;
68765;SDS011;55756;45.582;11.484;2022-08-01T07:06:32;6.03;;;2.50;;
68765;SDS011;55756;45.582;11.484;2022-08-01T07:08:58;9.35;;;2.50;;
68765;SDS011;55756;45.582;11.484;2022-08-01T07:11:26;7.18;;;2.80;;
68765;SDS011;55756;45.582;11.484;2022-08-01T07:13:51;7.65;;;2.85;;
68765;SDS011;55756;45.582;11.484;2022-08-01T07:16:17;7.03;;;3.10;;
68765;SDS011;55756;45.582;11.484;2022-08-01T07:18:43;5.47;;;3.00;;
68765;SDS011;55756;45.582;11.484;2022-08-01T07:21:09;7.15;;;2.90;;
68765;SDS011;55756;45.582;11.484;2022-08-01T07:23:35;7.30;;;2.70;;
68765;SDS011;55756;45.582;11.484;2022-08-01T07:26:02;7.53;;;2.78;;
68765;SDS011;55756;45.582;11.484;2022-08-01T07:28:29;8.00;;;2.80;;
68765;SDS011;55756;45.582;11.484;2022-08-01T07:30:55;8.25;;;2.90;;
68765;SDS011;55756;45.582;11.484;2022-08-01T07:33:22;7.10;;;2.30;;
68765;SDS011;55756;45.582;11.484;2022-08-01T07:35:48;4.78;;;2.03;;
68765;SDS011;55756;45.582;11.484;2022-08-01T07:38:14;4.43;;;1.75;;
68765;SDS011;55756;45.582;11.484;2022-08-01T07:40:43;6.35;;;2.28;;
68765;SDS011;55756;45.582;11.484;2022-08-01T07:43:09;7.65;;;2.60;;
68765;SDS011;55756;45.582;11.484;2022-08-01T07:45:35;6.28;;;2.38;;
68765;SDS011;55756;45.582;11.484;2022-08-01T07:48:04;5.90;;;2.30;;
68765;SDS011;55756;45.582;11.484;2022-08-01T07:50:31;9.65;;;2.60;;
68765;SDS011;55756;45.582;11.484;2022-08-01T07:52:57;8.35;;;2.70;;
68765;SDS011;55756;45.582;11.484;2022-08-01T07:55:23;7.20;;;2.73;;
68765;SDS011;55756;45.582;11.484;2022-08-01T07:57:48;5.23;;;2.50;;
68765;SDS011;55756;45.582;11.484;2022-08-01T08:00:15;7.77;;;2.80;;
68765;SDS011;55756;45.582;11.484;2022-08-01T08:02:41;7.95;;;2.65;;
68765;SDS011;55756;45.582;11.484;2022-08-01T08:05:07;7.03;;;2.80;;
68765;SDS011;55756;45.582;11.484;2022-08-01T08:07:33;8.82;;;3.10;;
68765;SDS011;55756;45.582;11.484;2022-08-01T08:09:59;6.15;;;2.60;;
68765;SDS011;55756;45.582;11.484;2022-08-01T08:12:24;6.70;;;2.60;;
68765;SDS011;55756;45.582;11.484;2022-08-01T08:14:50;6.03;;;2.90;;
68765;SDS011;55756;45.582;11.484;2022-08-01T08:17:16;5.17;;;2.60;;
68765;SDS011;55756;45.582;11.484;2022-08-01T08:19:42;4.53;;;2.50;;
68765;SDS011;55756;45.582;11.484;2022-08-01T08:22:09;6.35;;;2.60;;
68765;SDS011;55756;45.582;11.484;2022-08-01T08:24:35;13.00;;;3.80;;
68765;SDS011;55756;45.582;11.484;2022-08-01T08:27:02;7.85;;;2.83;;
68765;SDS011;55756;45.582;11.484;2022-08-01T08:31:57;11.32;;;2.80;;
68765;SDS011;55756;45.582;11.484;2022-08-01T08:36:49;7.05;;;2.60;;
68765;SDS011;55756;45.582;11.484;2022-08-01T08:39:15;10.60;;;2.60;;
68765;SDS011;55756;45.582;11.484;2022-08-01T08:41:42;6.82;;;2.40;;
68765;SDS011;55756;45.582;11.484;2022-08-01T08:44:08;5.25;;;2.00;;
68765;SDS011;55756;45.582;11.484;2022-08-01T08:46:38;9.40;;;1.90;;
68765;SDS011;55756;45.582;11.484;2022-08-01T08:49:06;5.78;;;1.92;;
68765;SDS011;55756;45.582;11.484;2022-08-01T08:51:34;5.78;;;2.10;;
68765;SDS011;55756;45.582;11.484;2022-08-01T08:54:04;7.82;;;2.00;;
68765;SDS011;55756;45.582;11.484;2022-08-01T08:56:31;6.53;;;1.75;;
68765;SDS011;55756;45.582;11.484;2022-08-01T08:59:00;6.60;;;2.05;;
68765;SDS011;55756;45.582;11.484;2022-08-01T09:01:27;5.60;;;2.00;;
68765;SDS011;55756;45.582;11.484;2022-08-01T09:03:53;7.45;;;2.10;;
68765;SDS011;55756;45.582;11.484;2022-08-01T09:06:19;6.72;;;2.13;;
68765;SDS011;55756;45.582;11.484;2022-08-01T09:08:45;7.28;;;1.98;;
68765;SDS011;55756;45.582;11.484;2022-08-01T09:11:12;7.88;;;2.00;;
68765;SDS011;55756;45.582;11.484;2022-08-01T09:13:38;14.65;;;2.60;;
68765;SDS011;55756;45.582;11.484;2022-08-01T09:16:04;7.68;;;2.03;;
68765;SDS011;55756;45.582;11.484;2022-08-01T09:18:39;7.13;;;1.90;;
68765;SDS011;55756;45.582;11.484;2022-08-01T09:21:19;9.15;;;2.10;;
68765;SDS011;55756;45.582;11.484;2022-08-01T09:23:49;6.43;;;2.10;;
68765;SDS011;55756;45.582;11.484;2022-08-01T09:26:28;8.27;;;2.22;;
68765;SDS011;55756;45.582;11.484;2022-08-01T09:28:55;6.28;;;2.00;;
68765;SDS011;55756;45.582;11.484;2022-08-01T09:31:22;5.75;;;1.85;;
68765;SDS011;55756;45.582;11.484;2022-08-01T09:39:19;7.93;;;1.80;;
68765;SDS011;55756;45.582;11.484;2022-08-01T09:41:47;4.75;;;1.77;;
68765;SDS011;55756;45.582;11.484;2022-08-01T09:44:13;9.05;;;2.08;;
68765;SDS011;55756;45.582;11.484;2022-08-01T09:46:52;7.28;;;2.00;;
68765;SDS011;55756;45.582;11.484;2022-08-01T09:51:53;6.82;;;1.80;;
68765;SDS011;55756;45.582;11.484;2022-08-01T09:54:29;7.40;;;1.90;;
68765;SDS011;55756;45.582;11.484;2022-08-01T09:57:07;8.87;;;2.10;;
68765;SDS011;55756;45.582;11.484;2022-08-01T09:59:42;7.78;;;1.85;;
68765;SDS011;55756;45.582;11.484;2022-08-01T10:02:10;6.70;;;1.98;;
68765;SDS011;55756;45.582;11.484;2022-08-01T10:04:45;6.78;;;2.20;;
68765;SDS011;55756;45.582;11.484;2022-08-01T10:07:15;8.10;;;2.13;;
68765;SDS011;55756;45.582;11.484;2022-08-01T10:09:41;8.15;;;1.95;;
68765;SDS011;55756;45.582;11.484;2022-08-01T10:12:08;10.90;;;2.03;;
68765;SDS011;55756;45.582;11.484;2022-08-01T10:14:35;5.57;;;1.85;;
68765;SDS011;55756;45.582;11.484;2022-08-01T10:17:03;6.93;;;1.88;;
68765;SDS011;55756;45.582;11.484;2022-08-01T10:19:32;6.00;;;1.70;;
68765;SDS011;55756;45.582;11.484;2022-08-01T10:21:59;5.60;;;1.63;;
68765;SDS011;55756;45.582;11.484;2022-08-01T10:24:27;9.63;;;1.83;;
68765;SDS011;55756;45.582;11.484;2022-08-01T10:26:56;10.52;;;1.90;;
68765;SDS011;55756;45.582;11.484;2022-08-01T10:29:31;6.75;;;1.90;;
68765;SDS011;55756;45.582;11.484;2022-08-01T10:32:03;7.07;;;1.90;;
68765;SDS011;55756;45.582;11.484;2022-08-01T10:34:30;7.70;;;1.92;;
68765;SDS011;55756;45.582;11.484;2022-08-01T10:36:58;6.28;;;1.80;;
68765;SDS011;55756;45.582;11.484;2022-08-01T10:39:25;9.13;;;2.00;;
68765;SDS011;55756;45.582;11.484;2022-08-01T10:41:54;5.15;;;1.90;;
68765;SDS011;55756;45.582;11.484;2022-08-01T10:44:23;10.90;;;2.05;;
68765;SDS011;55756;45.582;11.484;2022-08-01T10:46:52;8.98;;;2.00;;
68765;SDS011;55756;45.582;11.484;2022-08-01T10:49:22;7.35;;;2.10;;
68765;SDS011;55756;45.582;11.484;2022-08-01T10:51:53;6.00;;;1.88;;
68765;SDS011;55756;45.582;11.484;2022-08-01T10:54:19;7.18;;;1.95;;
68765;SDS011;55756;45.582;11.484;2022-08-01T10:56:49;6.80;;;1.80;;
68765;SDS011;55756;45.582;11.484;2022-08-01T10:59:22;6.77;;;1.73;;
68765;SDS011;55756;45.582;11.484;2022-08-01T11:01:57;9.77;;;1.98;;
68765;SDS011;55756;45.582;11.484;2022-08-01T11:07:20;8.25;;;1.90;;
68765;SDS011;55756;45.582;11.484;2022-08-01T11:09:58;5.35;;;1.63;;
68765;SDS011;55756;45.582;11.484;2022-08-01T11:12:44;5.65;;;1.80;;
68765;SDS011;55756;45.582;11.484;2022-08-01T11:17:36;7.53;;;1.70;;
68765;SDS011;55756;45.582;11.484;2022-08-01T11:25:24;7.65;;;1.70;;
68765;SDS011;55756;45.582;11.484;2022-08-01T11:30:51;5.63;;;1.90;;
68765;SDS011;55756;45.582;11.484;2022-08-01T11:33:47;6.38;;;1.90;;
68765;SDS011;55756;45.582;11.484;2022-08-01T11:38:46;6.70;;;1.70;;
68765;SDS011;55756;45.582;11.484;2022-08-01T11:44:00;5.28;;;1.77;;
68765;SDS011;55756;45.582;11.484;2022-08-01T11:52:03;6.32;;;1.70;;
68765;SDS011;55756;45.582;11.484;2022-08-01T11:54:50;5.03;;;1.77;;
68765;SDS011;55756;45.582;11.484;2022-08-01T11:57:23;4.88;;;1.70;;
68765;SDS011;55756;45.582;11.484;2022-08-01T11:59:52;7.95;;;1.88;;
68765;SDS011;55756;45.582;11.484;2022-08-01T12:04:50;7.00;;;1.70;;
68765;SDS011;55756;45.582;11.484;2022-08-01T12:07:22;5.03;;;1.67;;
68765;SDS011;55756;45.582;11.484;2022-08-01T12:12:46;4.53;;;1.55;;
68765;SDS011;55756;45.582;11.484;2022-08-01T12:15:16;5.40;;;1.98;;
68765;SDS011;55756;45.582;11.484;2022-08-01T12:17:45;9.52;;;1.70;;
68765;SDS011;55756;45.582;11.484;2022-08-01T12:20:16;5.00;;;1.70;;
68765;SDS011;55756;45.582;11.484;2022-08-01T12:22:45;6.63;;;1.75;;
68765;SDS011;55756;45.582;11.484;2022-08-01T12:25:15;6.28;;;1.80;;
68765;SDS011;55756;45.582;11.484;2022-08-01T12:27:43;7.65;;;1.55;;
68765;SDS011;55756;45.582;11.484;2022-08-01T12:30:12;3.67;;;1.50;;
68765;SDS011;55756;45.582;11.484;2022-08-01T12:32:44;4.03;;;1.70;;
68765;SDS011;55756;45.582;11.484;2022-08-01T12:35:14;7.07;;;1.80;;
68765;SDS011;55756;45.582;11.484;2022-08-01T12:37:45;6.13;;;1.40;;
68765;SDS011;55756;45.582;11.484;2022-08-01T12:42:48;6.60;;;1.35;;
68765;SDS011;55756;45.582;11.484;2022-08-01T12:45:17;5.80;;;1.58;;
68765;SDS011;55756;45.582;11.484;2022-08-01T12:47:45;4.70;;;1.50;;
68765;SDS011;55756;45.582;11.484;2022-08-01T12:52:39;4.35;;;1.42;;
68765;SDS011;55756;45.582;11.484;2022-08-01T12:55:09;3.00;;;1.35;;
68765;SDS011;55756;45.582;11.484;2022-08-01T12:57:43;8.15;;;1.40;;
68765;SDS011;55756;45.582;11.484;2022-08-01T13:00:16;4.50;;;1.20;;
68765;SDS011;55756;45.582;11.484;2022-08-01T13:02:48;7.95;;;1.50;;
68765;SDS011;55756;45.582;11.484;2022-08-01T13:05:15;4.70;;;1.40;;
68765;SDS011;55756;45.582;11.484;2022-08-01T13:10:14;3.78;;;1.60;;
68765;SDS011;55756;45.582;11.484;2022-08-01T13:12:53;4.95;;;1.40;;
68765;SDS011;55756;45.582;11.484;2022-08-01T13:15:42;3.97;;;1.45;;
68765;SDS011;55756;45.582;11.484;2022-08-01T13:18:27;5.93;;;1.50;;
68765;SDS011;55756;45.582;11.484;2022-08-01T13:21:14;3.75;;;1.50;;
68765;SDS011;55756;45.582;11.484;2022-08-01T13:24:27;3.83;;;1.45;;
68765;SDS011;55756;45.582;11.484;2022-08-01T13:29:14;4.15;;;1.50;;
68765;SDS011;55756;45.582;11.484;2022-08-01T13:31:42;5.47;;;1.60;;
68765;SDS011;55756;45.582;11.484;2022-08-01T13:34:09;7.20;;;1.70;;
68765;SDS011;55756;45.582;11.484;2022-08-01T13:36:35;5.03;;;1.50;;
68765;SDS011;55756;45.582;11.484;2022-08-01T13:39:02;6.30;;;1.57;;
68765;SDS011;55756;45.582;11.484;2022-08-01T13:41:47;4.30;;;1.50;;
68765;SDS011;55756;45.582;11.484;2022-08-01T13:44:13;6.63;;;1.85;;
68765;SDS011;55756;45.582;11.484;2022-08-01T13:46:40;5.05;;;1.70;;
68765;SDS011;55756;45.582;11.484;2022-08-01T13:49:07;8.55;;;1.70;;
68765;SDS011;55756;45.582;11.484;2022-08-01T13:51:34;7.80;;;1.58;;
68765;SDS011;55756;45.582;11.484;2022-08-01T13:54:01;3.28;;;1.48;;
68765;SDS011;55756;45.582;11.484;2022-08-01T13:56:27;5.25;;;1.60;;
68765;SDS011;55756;45.582;11.484;2022-08-01T13:58:54;5.82;;;1.55;;
68765;SDS011;55756;45.582;11.484;2022-08-01T14:01:20;4.82;;;1.55;;
68765;SDS011;55756;45.582;11.484;2022-08-01T14:03:46;5.10;;;1.70;;
68765;SDS011;55756;45.582;11.484;2022-08-01T14:06:13;6.78;;;1.67;;
68765;SDS011;55756;45.582;11.484;2022-08-01T14:08:40;4.45;;;1.50;;
68765;SDS011;55756;45.582;11.484;2022-08-01T14:11:07;6.50;;;1.70;;
68765;SDS011;55756;45.582;11.484;2022-08-01T14:13:33;3.92;;;1.60;;
68765;SDS011;55756;45.582;11.484;2022-08-01T14:15:59;7.45;;;1.60;;
68765;SDS011;55756;45.582;11.484;2022-08-01T14:18:25;7.57;;;1.60;;
68765;SDS011;55756;45.582;11.484;2022-08-01T14:20:51;10.05;;;1.77;;
68765;SDS011;55756;45.582;11.484;2022-08-01T14:23:17;7.70;;;1.50;;
68765;SDS011;55756;45.582;11.484;2022-08-01T14:25:43;6.28;;;1.35;;
68765;SDS011;55756;45.582;11.484;2022-08-01T14:28:09;6.70;;;1.38;;
68765;SDS011;55756;45.582;11.484;2022-08-01T14:30:35;11.00;;;1.42;;
68765;SDS011;55756;45.582;11.484;2022-08-01T14:33:01;3.03;;;1.20;;
68765;SDS011;55756;45.582;11.484;2022-08-01T14:35:28;5.32;;;1.40;;
68765;SDS011;55756;45.582;11.484;2022-08-01T14:37:53;4.90;;;1.40;;
68765;SDS011;55756;45.582;11.484;2022-08-01T14:40:19;4.90;;;1.40;;
68765;SDS011;55756;45.582;11.484;2022-08-01T14:42:45;4.25;;;1.45;;
68765;SDS011;55756;45.582;11.484;2022-08-01T14:45:11;5.35;;;1.30;;
68765;SDS011;55756;45.582;11.484;2022-08-01T14:47:38;3.42;;;1.23;;
68765;SDS011;55756;45.582;11.484;2022-08-01T14:50:06;5.00;;;1.20;;
68765;SDS011;55756;45.582;11.484;2022-08-01T14:52:34;6.70;;;1.40;;
68765;SDS011;55756;45.582;11.484;2022-08-01T14:55:00;3.73;;;1.30;;
68765;SDS011;55756;45.582;11.484;2022-08-01T14:57:27;5.32;;;1.40;;
68765;SDS011;55756;45.582;11.484;2022-08-01T14:59:52;4.25;;;1.40;;
68765;SDS011;55756;45.582;11.484;2022-08-01T15:02:18;3.40;;;1.50;;
68765;SDS011;55756;45.582;11.484;2022-08-01T15:04:48;3.47;;;1.50;;
68765;SDS011;55756;45.582;11.484;2022-08-01T15:07:14;6.18;;;1.30;;
68765;SDS011;55756;45.582;11.484;2022-08-01T15:09:41;5.70;;;1.38;;
68765;SDS011;55756;45.582;11.484;2022-08-01T15:12:08;9.20;;;1.50;;
68765;SDS011;55756;45.582;11.484;2022-08-01T15:14:35;4.75;;;1.50;;
68765;SDS011;55756;45.582;11.484;2022-08-01T15:17:46;4.70;;;1.40;;
68765;SDS011;55756;45.582;11.484;2022-08-01T15:20:05;3.80;;;1.40;;
68765;SDS011;55756;45.582;11.484;2022-08-01T15:22:32;5.57;;;1.50;;
68765;SDS011;55756;45.582;11.484;2022-08-01T15:24:59;7.22;;;1.40;;
68765;SDS011;55756;45.582;11.484;2022-08-01T15:27:26;8.23;;;1.50;;
68765;SDS011;55756;45.582;11.484;2022-08-01T15:29:53;9.03;;;1.50;;
68765;SDS011;55756;45.582;11.484;2022-08-01T15:32:20;6.03;;;1.50;;
68765;SDS011;55756;45.582;11.484;2022-08-01T15:34:46;8.50;;;1.77;;
68765;SDS011;55756;45.582;11.484;2022-08-01T15:37:12;8.32;;;1.63;;
68765;SDS011;55756;45.582;11.484;2022-08-01T15:39:38;5.07;;;1.65;;
68765;SDS011;55756;45.582;11.484;2022-08-01T15:42:09;8.00;;;1.85;;
68765;SDS011;55756;45.582;11.484;2022-08-01T15:44:35;5.40;;;1.80;;
68765;SDS011;55756;45.582;11.484;2022-08-01T15:47:02;7.18;;;2.00;;
68765;SDS011;55756;45.582;11.484;2022-08-01T15:49:29;5.27;;;1.70;;
68765;SDS011;55756;45.582;11.484;2022-08-01T15:51:55;7.75;;;1.80;;